Time;durP1;ratioP1;P1;durP2;ratioP2;P2;SDS_P1;SDS_P2;PMS_P1;PMS_P2;Temp;Humidity;BMP_temperature;BMP_pressure;BME280_temperature;BME280_humidity;BME280_pressure;Samples;Min_cycle;Max_cycle;Signal;HPM_P1;HPM_P2
2022/09/01 00:01:52;;;;;;;1.42;0.88;;;;;;;26.19;36.01;101692.38;5034098;28;20025;-58
2022/09/01 00:04:25;;;;;;;3.33;0.93;;;;;;;26.16;35.87;101698.31;5034832;28;20029;-58
2022/09/01 00:06:51;;;;;;;1.27;0.85;;;;;;;26.10;35.90;101694.47;5035886;28;20021;-58
2022/09/01 00:09:18;;;;;;;3.20;1.02;;;;;;;26.06;35.87;101693.19;5035834;28;20040;-58
2022/09/01 00:11:46;;;;;;;2.03;0.80;;;;;;;25.99;36.30;101693.19;5034671;28;20021;-58
2022/09/01 00:14:13;;;;;;;1.42;1.00;;;;;;;25.94;36.02;101706.69;5035829;28;20025;-58
2022/09/01 00:16:38;;;;;;;1.63;1.13;;;;;;;25.88;36.12;101707.53;5035980;28;20090;-58
2022/09/01 00:19:04;;;;;;;2.75;0.80;;;;;;;25.82;36.28;101707.53;5035874;28;20390;-58
2022/09/01 00:21:33;;;;;;;0.98;0.70;;;;;;;25.80;36.53;101699.47;5035642;28;20601;-58
2022/09/01 00:24:00;;;;;;;6.43;1.08;;;;;;;25.77;36.80;101705.38;5034388;28;20067;-58
2022/09/01 00:26:26;;;;;;;2.03;0.98;;;;;;;25.64;36.80;101685.28;5034385;28;20517;-58
2022/09/01 00:28:51;;;;;;;4.60;1.10;;;;;;;25.72;36.69;101705.16;5034463;28;20033;-59
2022/09/01 00:31:20;;;;;;;4.22;0.98;;;;;;;25.70;36.51;101701.78;5034137;28;20033;-58
2022/09/01 00:33:46;;;;;;;2.75;0.65;;;;;;;25.66;36.62;101705.13;5035604;28;20391;-58
2022/09/01 00:36:12;;;;;;;1.67;1.05;;;;;;;25.57;37.32;101703.66;5034184;28;20048;-58
2022/09/01 00:38:38;;;;;;;1.92;0.77;;;;;;;25.52;36.88;101701.50;5035441;28;20022;-58
2022/09/01 00:41:04;;;;;;;2.65;1.00;;;;;;;25.45;37.26;101706.09;5033942;28;20083;-58
2022/09/01 00:43:40;;;;;;;4.38;0.70;;;;;;;25.35;37.46;101705.63;5035208;28;20037;-58
2022/09/01 00:46:08;;;;;;;1.48;1.27;;;;;;;25.27;37.80;101711.28;5035237;28;20032;-58
2022/09/01 00:48:34;;;;;;;0.75;0.75;;;;;;;25.19;37.91;101711.47;5035148;28;20159;-58
2022/09/01 00:51:00;;;;;;;4.25;1.08;;;;;;;25.15;38.13;101716.53;5035082;28;20025;-58
2022/09/01 00:53:26;;;;;;;1.50;0.63;;;;;;;25.11;38.38;101711.63;5035042;28;20483;-58
2022/09/01 00:55:51;;;;;;;2.63;0.88;;;;;;;25.09;38.08;101714.59;5033808;28;20027;-58
2022/09/01 00:58:17;;;;;;;3.08;0.85;;;;;;;25.06;37.67;101705.91;5034838;28;20025;-58
2022/09/01 01:00:45;;;;;;;6.68;1.02;;;;;;;25.00;38.08;101695.75;5033684;28;20079;-58
2022/09/01 01:03:11;;;;;;;2.05;1.23;;;;;;;25.01;38.52;101702.94;5016958;28;20453;-58
2022/09/01 01:05:45;;;;;;;1.77;0.80;;;;;;;24.97;38.38;101699.75;5033633;28;20033;-58
2022/09/01 01:08:11;;;;;;;3.38;0.93;;;;;;;24.90;38.55;101704.34;5033580;28;20419;-58
2022/09/01 01:10:39;;;;;;;1.73;0.90;;;;;;;24.80;38.23;101701.09;5017194;28;20033;-58
2022/09/01 01:13:14;;;;;;;1.90;0.80;;;;;;;24.77;38.68;101707.81;5034448;28;20017;-58
2022/09/01 01:15:43;;;;;;;2.05;0.60;;;;;;;24.71;38.17;101703.13;5033580;28;20048;-58
2022/09/01 01:18:12;;;;;;;1.90;1.10;;;;;;;24.66;38.73;101708.38;5033300;28;20099;-58
2022/09/01 01:23:47;;;;;;;5.22;0.75;;;;;;;24.55;39.07;101705.31;5034400;28;20112;-59
2022/09/01 01:26:13;;;;;;;4.40;1.02;;;;;;;24.48;38.47;101702.56;5033468;28;20547;-58
2022/09/01 01:28:40;;;;;;;1.98;0.80;;;;;;;24.47;38.37;101708.22;5034447;28;20090;-57
2022/09/01 01:31:11;;;;;;;3.10;0.70;;;;;;;24.46;39.35;101706.50;5034310;28;20033;-58
2022/09/01 01:33:40;;;;;;;3.50;0.52;;;;;;;24.44;38.61;101705.88;5034368;28;20043;-59
2022/09/01 01:36:35;;;;;;;2.03;0.50;;;;;;;24.42;39.04;101711.56;5032974;28;20049;-58
2022/09/01 01:39:27;;;;;;;0.98;0.85;;;;;;;24.38;38.34;101707.50;5034213;28;20029;-59
2022/09/01 01:41:54;;;;;;;0.75;0.75;;;;;;;24.33;38.41;101710.84;5034023;28;20025;-59
2022/09/01 01:44:23;;;;;;;0.80;0.60;;;;;;;24.27;39.43;101708.03;5032906;28;20029;-59
2022/09/01 01:46:51;;;;;;;1.23;0.93;;;;;;;24.22;39.63;101707.78;5032813;28;20094;-59
2022/09/01 01:49:19;;;;;;;1.50;1.20;;;;;;;24.17;39.42;101719.34;5034147;28;20025;-59
2022/09/01 01:51:55;;;;;;;1.55;0.82;;;;;;;24.11;39.50;101713.78;5034149;28;20025;-59
2022/09/01 01:54:24;;;;;;;1.17;0.80;;;;;;;24.06;39.50;101716.25;5034285;28;20049;-59
2022/09/01 01:56:50;;;;;;;1.70;0.85;;;;;;;24.01;39.19;101710.50;5032695;28;20022;-59
2022/09/01 01:59:15;;;;;;;0.82;0.80;;;;;;;23.93;39.07;101719.69;5016124;28;20025;-59
2022/09/01 02:01:42;;;;;;;2.70;0.65;;;;;;;23.89;40.15;101712.06;5033683;28;20080;-59
2022/09/01 02:04:10;;;;;;;5.40;1.20;;;;;;;23.84;40.23;101725.50;5032606;28;20083;-59
2022/09/01 02:06:36;;;;;;;3.28;1.10;;;;;;;23.80;39.29;101721.44;5032515;28;20440;-59
2022/09/01 02:09:02;;;;;;;1.35;0.82;;;;;;;23.72;39.63;101722.41;5032534;28;20033;-59
2022/09/01 02:11:29;;;;;;;7.43;1.67;;;;;;;23.70;39.63;101719.84;5032495;28;20022;-59
2022/09/01 02:13:56;;;;;;;4.60;0.85;;;;;;;23.64;39.59;101717.91;5033655;28;20033;-59
2022/09/01 02:16:23;;;;;;;1.52;1.10;;;;;;;23.60;40.31;101724.78;5033690;28;20111;-60
2022/09/01 02:18:49;;;;;;;5.90;1.17;;;;;;;23.54;39.79;101722.81;5032799;28;20140;-58
2022/09/01 02:21:20;;;;;;;0.60;0.55;;;;;;;23.53;40.77;101723.03;5033257;28;20061;-59
2022/09/01 02:23:59;;;;;;;0.75;0.70;;;;;;;23.49;41.04;101736.22;5016068;28;20034;-59
2022/09/01 02:26:37;;;;;;;2.58;1.15;;;;;;;23.43;41.12;101728.78;5033411;28;20040;-60
2022/09/01 02:29:07;;;;;;;1.83;0.73;;;;;;;23.38;40.07;101724.94;5033271;28;20168;-59
2022/09/01 02:31:38;;;;;;;1.88;0.88;;;;;;;23.33;40.70;101721.88;5033296;28;20048;-59
2022/09/01 02:34:03;;;;;;;5.25;1.13;;;;;;;23.32;40.60;101726.50;5016451;28;20034;-60
2022/09/01 02:36:33;;;;;;;1.00;0.70;;;;;;;23.29;41.03;101717.81;5033443;28;20037;-59
2022/09/01 02:38:59;;;;;;;0.70;0.70;;;;;;;23.21;40.62;101718.78;5032242;28;20109;-60
2022/09/01 02:41:27;;;;;;;4.85;1.80;;;;;;;23.23;40.16;101724.91;5015548;28;20121;-59
2022/09/01 02:43:53;;;;;;;3.70;1.52;;;;;;;23.12;40.25;101704.38;5032123;28;20403;-60
2022/09/01 02:46:22;;;;;;;2.47;1.52;;;;;;;23.16;40.92;101716.63;5033375;28;20033;-59
2022/09/01 02:48:50;;;;;;;2.45;0.93;;;;;;;23.13;41.11;101717.00;5031945;28;20506;-59
2022/09/01 02:51:17;;;;;;;4.93;0.80;;;;;;;23.10;40.28;101716.53;5032266;28;20053;-59
2022/09/01 02:53:47;;;;;;;1.52;0.80;;;;;;;23.07;40.92;101716.91;5033036;28;20519;-59
2022/09/01 02:56:13;;;;;;;4.60;1.00;;;;;;;23.03;41.47;101721.06;5033090;28;20117;-60
2022/09/01 02:58:44;;;;;;;3.17;1.10;;;;;;;22.99;40.52;101717.00;5031850;28;20096;-59
2022/09/01 03:01:25;;;;;;;2.17;1.27;;;;;;;22.95;40.71;101712.94;5032972;28;20095;-59
2022/09/01 03:03:55;;;;;;;2.17;0.90;;;;;;;22.92;41.60;101714.16;5032202;28;20022;-59
2022/09/01 03:06:22;;;;;;;1.50;0.85;;;;;;;22.87;41.31;101702.94;5033005;28;20095;-59
2022/09/01 03:08:49;;;;;;;3.35;0.70;;;;;;;22.83;41.08;101704.38;5031918;28;20375;-59
2022/09/01 03:11:15;;;;;;;0.95;0.73;;;;;;;22.81;41.96;101706.44;5033250;28;20403;-59
2022/09/01 03:13:41;;;;;;;3.60;1.10;;;;;;;22.75;41.51;101696.28;5032922;28;20028;-58
2022/09/01 03:16:07;;;;;;;2.97;1.10;;;;;;;22.75;42.08;101701.75;5032883;28;20117;-59
2022/09/01 03:18:33;;;;;;;1.48;0.88;;;;;;;22.74;42.15;101707.38;5032960;28;20079;-59
2022/09/01 03:20:58;;;;;;;3.05;1.00;;;;;;;22.71;41.76;101708.59;5032731;28;20072;-59
2022/09/01 03:23:24;;;;;;;1.25;0.70;;;;;;;22.68;41.26;101705.38;5032823;28;20073;-59
2022/09/01 03:25:50;;;;;;;1.80;1.05;;;;;;;22.60;42.00;101701.69;5031677;28;20033;-59
2022/09/01 03:28:15;;;;;;;0.73;0.73;;;;;;;22.61;41.74;101700.63;5032846;28;20034;-59
2022/09/01 03:30:49;;;;;;;6.40;1.55;;;;;;;22.59;42.32;101701.84;5031559;28;20021;-59
2022/09/01 03:33:16;;;;;;;0.85;0.85;;;;;;;22.57;41.49;101704.78;5015441;28;20017;-59
2022/09/01 03:35:41;;;;;;;1.20;0.80;;;;;;;22.54;41.39;101705.16;5032784;28;20029;-59
2022/09/01 03:38:07;;;;;;;2.95;1.17;;;;;;;22.52;42.39;101700.91;5035314;28;20037;-59
2022/09/01 03:40:34;;;;;;;0.95;0.75;;;;;;;22.47;41.56;101709.66;5035278;28;20021;-58
2022/09/01 03:43:02;;;;;;;2.17;0.93;;;;;;;22.46;42.50;101707.97;5035261;28;20026;-59
2022/09/01 03:45:28;;;;;;;1.00;0.70;;;;;;;22.44;41.70;101704.59;5036362;28;20017;-59
2022/09/01 03:47:55;;;;;;;2.78;0.70;;;;;;;22.40;41.45;101705.97;5036358;28;20117;-59
2022/09/01 03:50:22;;;;;;;3.38;1.23;;;;;;;22.38;41.69;101708.03;5036504;28;20455;-58
2022/09/01 03:52:53;;;;;;;3.10;1.00;;;;;;;22.37;42.64;101698.16;5036499;28;20022;-59
2022/09/01 03:55:26;;;;;;;1.35;0.80;;;;;;;22.33;42.60;101699.56;5036283;28;20021;-59
2022/09/01 03:57:53;;;;;;;2.70;0.88;;;;;;;22.31;42.21;101703.47;5036703;28;20067;-59
2022/09/01 04:00:22;;;;;;;0.75;0.68;;;;;;;22.26;42.68;101701.31;5036142;28;20034;-58
2022/09/01 04:02:49;;;;;;;1.48;0.90;;;;;;;22.23;42.52;101703.56;5018976;28;20438;-59
2022/09/01 04:05:17;;;;;;;2.13;1.10;;;;;;;22.23;42.77;101707.16;5036240;28;20029;-59
2022/09/01 04:07:45;;;;;;;1.63;0.80;;;;;;;22.20;42.48;101702.06;5034665;28;20025;-60
2022/09/01 04:10:11;;;;;;;0.90;0.80;;;;;;;22.19;42.05;101708.56;5018596;28;20402;-59
2022/09/01 04:12:37;;;;;;;6.47;1.48;;;;;;;22.15;42.73;101707.22;5034620;28;20026;-59
2022/09/01 04:15:03;;;;;;;1.45;1.27;;;;;;;22.13;43.06;101714.75;5018509;28;20033;-59
2022/09/01 04:20:14;;;;;;;3.85;1.00;;;;;;;22.09;42.21;101704.34;5035640;28;20064;-59
2022/09/01 04:22:39;;;;;;;1.98;1.27;;;;;;;22.07;42.69;101707.28;5035621;28;20463;-59
2022/09/01 04:25:05;;;;;;;2.95;1.20;;;;;;;22.03;43.09;101700.47;5035664;28;20030;-60
2022/09/01 04:27:31;;;;;;;3.78;0.93;;;;;;;22.04;42.57;101707.66;5034289;28;20021;-59
2022/09/01 04:29:56;;;;;;;2.60;1.25;;;;;;;22.03;42.68;101714.13;5035998;28;20092;-60
2022/09/01 04:32:23;;;;;;;4.97;1.20;;;;;;;22.01;42.66;101714.31;5035484;28;20018;-58
2022/09/01 04:34:48;;;;;;;2.03;1.17;;;;;;;21.99;42.60;101710.06;5034195;28;20030;-59
2022/09/01 04:37:19;;;;;;;2.13;1.05;;;;;;;21.98;42.27;101708.38;5035379;28;20030;-59
2022/09/01 04:39:52;;;;;;;4.07;1.33;;;;;;;21.97;42.84;101706.69;5034135;28;20021;-59
2022/09/01 04:42:19;;;;;;;2.30;1.17;;;;;;;21.95;42.90;101703.28;5034044;28;20506;-59
2022/09/01 04:44:45;;;;;;;4.25;1.38;;;;;;;21.95;42.81;101700.53;5035218;28;20036;-60
2022/09/01 04:47:15;;;;;;;3.78;1.20;;;;;;;21.92;42.83;101699.03;5034573;28;20037;-59
2022/09/01 04:49:42;;;;;;;1.75;1.45;;;;;;;21.90;42.86;101705.69;5035433;28;20025;-59
2022/09/01 04:52:07;;;;;;;3.45;1.52;;;;;;;21.91;43.19;101713.72;5035033;28;20029;-59
2022/09/01 04:54:35;;;;;;;3.22;1.30;;;;;;;21.89;43.09;101714.91;5034904;28;20032;-59
2022/09/01 04:57:01;;;;;;;3.67;1.20;;;;;;;21.84;42.56;101711.84;5017557;28;20025;-59
2022/09/01 04:59:28;;;;;;;1.98;1.20;;;;;;;21.85;42.50;101714.41;5033923;28;20041;-59
2022/09/01 05:01:56;;;;;;;2.40;1.05;;;;;;;21.82;43.63;101711.19;5034077;28;20368;-59
2022/09/01 05:04:26;;;;;;;2.90;1.13;;;;;;;21.82;42.73;101713.91;5035012;28;20064;-59
2022/09/01 05:06:55;;;;;;;1.45;1.35;;;;;;;21.81;42.73;101713.06;5035318;28;20459;-60
2022/09/01 05:09:21;;;;;;;2.95;1.15;;;;;;;21.77;43.47;101708.16;5034759;28;20117;-59
2022/09/01 05:11:47;;;;;;;3.35;1.00;;;;;;;21.77;43.14;101706.28;5034746;28;20029;-59
2022/09/01 05:14:13;;;;;;;1.85;1.30;;;;;;;21.80;43.21;101705.06;5035013;28;20025;-60
2022/09/01 05:16:41;;;;;;;2.17;0.93;;;;;;;21.86;43.30;101710.63;5033460;28;20119;-59
2022/09/01 05:19:13;;;;;;;2.33;1.10;;;;;;;21.89;43.85;101709.44;5033241;28;20047;-59
2022/09/01 05:21:42;;;;;;;1.50;1.23;;;;;;;21.94;43.59;101718.78;5034453;28;20079;-59
2022/09/01 05:24:09;;;;;;;2.30;1.17;;;;;;;21.98;43.17;101706.50;5017109;28;20259;-59
2022/09/01 05:26:39;;;;;;;1.55;1.02;;;;;;;22.08;42.96;101714.44;5016949;28;20536;-59
2022/09/01 05:29:09;;;;;;;3.28;1.77;;;;;;;22.16;43.44;101713.53;5034718;28;20029;-59
2022/09/01 05:31:36;;;;;;;1.08;0.98;;;;;;;22.29;42.84;101711.88;5034856;28;20048;-60
2022/09/01 05:34:03;;;;;;;3.55;1.60;;;;;;;22.41;43.61;101718.59;5016799;28;20028;-59
2022/09/01 05:36:32;;;;;;;6.88;1.60;;;;;;;22.44;43.48;101703.72;5034244;28;20036;-59
2022/09/01 05:38:59;;;;;;;2.63;1.50;;;;;;;22.61;42.66;101710.72;5042588;28;20474;-60
2022/09/01 05:41:25;;;;;;;4.32;1.52;;;;;;;22.71;43.40;101713.22;5053284;28;20474;-59
2022/09/01 05:43:51;;;;;;;3.17;1.60;;;;;;;22.89;43.15;101725.47;5054190;28;20032;-59
2022/09/01 05:46:22;;;;;;;1.77;1.45;;;;;;;23.02;42.90;101722.94;5053957;28;20025;-59
2022/09/01 05:48:49;;;;;;;3.88;1.48;;;;;;;23.19;43.27;101723.59;5053944;28;20025;-59
2022/09/01 05:51:18;;;;;;;5.55;1.80;;;;;;;23.37;41.99;101732.25;5052832;28;20044;-59
2022/09/01 05:53:45;;;;;;;2.78;1.80;;;;;;;23.55;42.46;101727.25;5052562;28;20047;-59
2022/09/01 05:56:12;;;;;;;3.40;1.50;;;;;;;23.75;41.97;101728.34;5052597;28;20032;-59
2022/09/01 05:58:39;;;;;;;3.58;1.50;;;;;;;23.97;42.07;101728.34;5053203;28;20035;-60
2022/09/01 06:01:05;;;;;;;3.20;1.80;;;;;;;24.22;42.07;101726.97;5035879;28;20033;-59
2022/09/01 06:03:31;;;;;;;3.42;2.08;;;;;;;24.44;42.33;101725.91;5052581;28;20025;-60
2022/09/01 06:06:07;;;;;;;3.70;2.15;;;;;;;24.70;41.67;101728.84;5053884;28;20056;-60
2022/09/01 06:08:35;;;;;;;5.82;1.52;;;;;;;24.89;40.96;101717.22;5053832;28;20375;-60
2022/09/01 06:11:02;;;;;;;3.20;1.60;;;;;;;25.14;41.10;101719.44;5053585;28;20037;-59
2022/09/01 06:13:28;;;;;;;4.00;2.03;;;;;;;25.28;41.34;101719.31;5052588;28;20435;-60
2022/09/01 06:15:54;;;;;;;2.30;1.60;;;;;;;25.46;41.01;101725.09;5053537;28;20112;-60
2022/09/01 06:18:20;;;;;;;3.53;1.67;;;;;;;25.60;40.68;101723.28;5052271;28;20053;-60
2022/09/01 06:20:46;;;;;;;4.28;1.88;;;;;;;25.81;40.71;101728.63;5053347;28;20140;-60
2022/09/01 06:23:14;;;;;;;2.17;1.98;;;;;;;25.90;40.65;101730.16;5052379;28;20437;-59
2022/09/01 06:25:45;;;;;;;2.83;2.03;;;;;;;26.09;40.56;101730.38;5052197;28;20025;-59
2022/09/01 06:28:15;;;;;;;5.10;2.33;;;;;;;26.30;40.53;101727.50;5053511;28;20017;-60
2022/09/01 06:30:44;;;;;;;3.40;1.60;;;;;;;26.46;39.93;101721.59;5053294;28;20393;-60
2022/09/01 06:33:12;;;;;;;3.78;1.45;;;;;;;26.63;39.82;101722.84;5053201;28;20063;-60
2022/09/01 06:35:39;;;;;;;2.20;1.90;;;;;;;26.81;39.29;101722.19;5053237;28;20089;-58
2022/09/01 06:38:05;;;;;;;2.80;2.00;;;;;;;26.94;39.54;101725.78;5053279;28;20021;-58
2022/09/01 06:40:32;;;;;;;3.30;1.77;;;;;;;27.08;39.08;101721.94;5053335;28;20116;-58
2022/09/01 06:43:01;;;;;;;2.55;1.77;;;;;;;27.22;39.06;101735.69;5053178;28;20505;-58
2022/09/01 06:45:27;;;;;;;5.07;2.17;;;;;;;27.37;39.07;101730.75;5053057;28;20083;-59
2022/09/01 06:47:52;;;;;;;5.25;2.13;;;;;;;27.47;38.68;101731.16;5051934;28;20021;-58
2022/09/01 06:50:20;;;;;;;2.83;1.90;;;;;;;27.56;39.08;101729.84;5053076;28;20112;-58
2022/09/01 06:52:48;;;;;;;3.53;2.08;;;;;;;27.64;38.31;101733.19;5053092;28;20017;-58
2022/09/01 06:55:15;;;;;;;4.88;1.77;;;;;;;27.79;38.59;101738.41;5053046;28;20025;-58
2022/09/01 06:57:46;;;;;;;5.57;1.83;;;;;;;27.90;38.13;101737.72;5053031;28;20029;-58
2022/09/01 07:00:19;;;;;;;4.45;2.65;;;;;;;28.00;38.53;101738.06;5051889;28;20025;-58
2022/09/01 07:02:53;;;;;;;2.60;1.50;;;;;;;28.13;37.66;101743.53;5052844;28;20025;-58
2022/09/01 07:05:20;;;;;;;4.38;2.08;;;;;;;28.23;38.48;101732.88;5052936;28;20474;-58
2022/09/01 07:07:54;;;;;;;3.50;1.83;;;;;;;28.37;37.65;101747.38;5053119;28;20393;-59
2022/09/01 07:10:24;;;;;;;5.10;2.00;;;;;;;28.49;38.17;101739.25;5052944;28;20021;-58
2022/09/01 07:13:00;;;;;;;6.90;1.90;;;;;;;28.60;37.39;101733.84;5057039;28;20437;-58
2022/09/01 07:15:26;;;;;;;3.03;1.90;;;;;;;28.75;36.90;101747.31;5055720;28;20386;-58
2022/09/01 07:17:54;;;;;;;2.83;1.65;;;;;;;28.87;37.19;101739.97;5056847;28;20028;-59
2022/09/01 07:20:22;;;;;;;5.80;1.73;;;;;;;29.05;37.17;101745.53;5056546;28;20057;-58
2022/09/01 07:22:49;;;;;;;5.30;1.80;;;;;;;29.14;36.99;101735.88;5056604;28;20109;-58
2022/09/01 07:25:16;;;;;;;4.78;1.75;;;;;;;29.26;36.29;101744.25;5055334;28;20029;-58
2022/09/01 07:27:47;;;;;;;4.80;1.35;;;;;;;29.38;36.95;101736.91;5056556;28;20025;-59
2022/09/01 07:30:13;;;;;;;2.07;1.37;;;;;;;29.44;36.06;101731.31;5057141;28;20466;-59
2022/09/01 07:32:42;;;;;;;5.68;1.55;;;;;;;29.60;35.72;101740.88;5055645;28;20017;-59
2022/09/01 07:35:08;;;;;;;2.80;1.67;;;;;;;29.74;36.08;101744.28;5056509;28;20029;-58
2022/09/01 07:37:36;;;;;;;3.72;1.42;;;;;;;29.89;36.07;101736.47;5056865;28;20516;-60
2022/09/01 07:40:05;;;;;;;4.55;1.70;;;;;;;30.00;35.37;101738.44;5056310;28;20033;-58
2022/09/01 07:42:30;;;;;;;2.15;1.20;;;;;;;30.17;35.18;101731.16;5056174;28;20029;-58
2022/09/01 07:44:57;;;;;;;2.45;1.13;;;;;;;30.31;34.98;101737.31;5055214;28;20035;-58
2022/09/01 07:47:22;;;;;;;3.00;2.45;;;;;;;30.47;35.04;101742.19;5056608;28;20108;-58
2022/09/01 07:49:48;;;;;;;2.90;1.30;;;;;;;30.58;35.11;101739.44;5056177;28;20446;-58
2022/09/01 07:52:13;;;;;;;3.80;1.90;;;;;;;30.72;34.70;101744.75;5056132;28;20056;-58
2022/09/01 07:54:39;;;;;;;2.55;1.40;;;;;;;30.82;34.38;101742.25;5056027;28;20428;-59
2022/09/01 07:57:05;;;;;;;4.13;2.40;;;;;;;30.98;34.29;101741.53;5056046;28;20108;-59
2022/09/01 07:59:32;;;;;;;2.75;1.38;;;;;;;31.13;34.17;101741.88;5054683;28;20029;-59
2022/09/01 08:01:57;;;;;;;4.88;2.50;;;;;;;31.26;33.92;101741.63;5054859;28;20037;-58
2022/09/01 08:04:23;;;;;;;2.25;1.42;;;;;;;31.26;33.61;101726.94;5056079;28;20040;-58
2022/09/01 08:06:49;;;;;;;1.33;1.08;;;;;;;31.49;33.47;101740.78;5056032;28;20056;-58
2022/09/01 08:09:14;;;;;;;4.35;1.73;;;;;;;31.60;33.25;101754.56;5055858;28;20056;-59
2022/09/01 08:11:40;;;;;;;3.92;1.20;;;;;;;31.71;33.14;101762.00;5055735;28;20024;-59
2022/09/01 08:14:05;;;;;;;2.03;1.30;;;;;;;31.80;33.22;101754.13;5055823;28;20033;-59
2022/09/01 08:16:31;;;;;;;1.75;1.10;;;;;;;31.88;33.13;101744.59;5055674;28;20109;-59
2022/09/01 08:18:57;;;;;;;1.42;1.20;;;;;;;32.00;32.95;101757.31;5055727;28;20033;-59
2022/09/01 08:21:23;;;;;;;3.40;0.75;;;;;;;32.06;32.52;101752.72;5055008;28;20057;-58
2022/09/01 08:23:50;;;;;;;0.93;0.80;;;;;;;32.10;32.48;101751.16;5054894;28;20044;-59
2022/09/01 08:26:17;;;;;;;2.95;1.33;;;;;;;32.18;32.67;101756.31;5055498;28;20025;-59
2022/09/01 08:28:43;;;;;;;1.80;1.20;;;;;;;32.27;32.07;101744.53;5055575;28;20466;-59
2022/09/01 08:31:12;;;;;;;3.65;1.05;;;;;;;32.37;31.78;101743.88;5037536;28;20031;-59
2022/09/01 08:33:39;;;;;;;0.80;0.80;;;;;;;32.50;32.14;101751.88;5054175;28;20021;-59
2022/09/01 08:36:07;;;;;;;1.38;1.20;;;;;;;32.52;31.90;101738.59;5055321;28;20036;-59
2022/09/01 08:38:33;;;;;;;3.47;0.77;;;;;;;32.60;31.51;101740.97;5054046;28;20116;-59
2022/09/01 08:40:59;;;;;;;2.55;1.13;;;;;;;32.64;32.09;101730.19;5055272;28;20043;-59
2022/09/01 08:43:54;;;;;;;2.67;1.10;;;;;;;32.71;31.87;101740.06;5046948;28;20029;-59
2022/09/01 08:46:29;;;;;;;2.05;1.08;;;;;;;32.92;32.40;101735.63;5035828;28;20479;-60
2022/09/01 08:48:57;;;;;;;3.65;1.38;;;;;;;33.11;32.00;101736.25;5051193;28;20021;-59
2022/09/01 08:51:37;;;;;;;1.75;1.05;;;;;;;33.24;31.50;101733.91;5035229;28;20029;-59
2022/09/01 08:54:21;;;;;;;2.63;0.95;;;;;;;33.37;30.73;101743.81;5047450;28;20051;-60
2022/09/01 08:56:51;;;;;;;2.78;1.17;;;;;;;33.47;30.53;101743.94;5043433;28;20052;-59
2022/09/01 08:59:18;;;;;;;4.60;0.70;;;;;;;33.58;31.02;101740.22;5017222;28;20025;-59
2022/09/01 09:02:12;;;;;;;7.90;1.00;;;;;;;33.73;30.93;101737.59;5034956;28;20033;-59
2022/09/01 09:04:56;;;;;;;3.58;1.52;;;;;;;33.88;29.76;101737.78;5034035;28;20517;-59
2022/09/01 09:07:43;;;;;;;3.03;1.33;;;;;;;34.06;31.16;101738.53;5033706;28;20506;-58
2022/09/01 09:10:17;;;;;;;2.60;1.10;;;;;;;34.24;30.94;101738.16;5034843;28;20021;-59
2022/09/01 09:12:52;;;;;;;1.65;1.02;;;;;;;34.39;30.41;101743.88;5033571;28;20022;-59
2022/09/01 09:15:38;;;;;;;1.40;1.17;;;;;;;34.53;29.48;101728.41;5034605;28;20449;-58
2022/09/01 09:18:40;;;;;;;3.42;0.93;;;;;;;34.64;29.38;101729.38;5034609;28;20028;-59
2022/09/01 09:21:38;;;;;;;3.75;1.50;;;;;;;34.71;29.70;101719.66;5033276;28;20045;-59
2022/09/01 09:24:25;;;;;;;2.40;0.98;;;;;;;34.76;29.64;101728.06;5034289;28;20052;-59
2022/09/01 09:26:52;;;;;;;1.50;1.35;;;;;;;34.78;29.75;101714.72;5034427;28;20032;-59
2022/09/01 09:29:20;;;;;;;1.88;1.10;;;;;;;34.86;29.08;101717.00;5034655;28;20513;-59
2022/09/01 09:31:47;;;;;;;4.90;1.42;;;;;;;34.92;28.71;101713.16;5034692;28;20025;-59
2022/09/01 09:34:34;;;;;;;1.83;1.20;;;;;;;34.96;29.34;101719.84;5034180;28;20037;-59
2022/09/01 09:37:16;;;;;;;1.20;0.98;;;;;;;35.01;28.67;101711.50;5032978;28;20497;-59
2022/09/01 09:39:41;;;;;;;2.65;0.82;;;;;;;35.09;29.36;101702.66;5033107;28;20108;-59
2022/09/01 09:42:13;;;;;;;0.82;0.82;;;;;;;35.21;28.28;101709.97;5016470;28;20529;-59
2022/09/01 09:44:44;;;;;;;0.80;0.80;;;;;;;35.42;28.63;101697.81;5032827;28;20063;-58
2022/09/01 09:47:32;;;;;;;2.35;0.93;;;;;;;36.00;27.73;101696.56;5034040;28;20033;-59
2022/09/01 09:50:21;;;;;;;1.55;1.17;;;;;;;36.78;27.75;101703.59;5034051;28;20033;-58
2022/09/01 09:52:47;;;;;;;4.55;1.00;;;;;;;37.98;25.94;101692.22;5033052;28;20499;-58
2022/09/01 09:55:16;;;;;;;1.20;0.80;;;;;;;40.06;23.47;101709.28;5032808;28;20025;-58
2022/09/01 09:57:41;;;;;;;1.60;0.82;;;;;;;40.30;23.11;101690.34;5033909;28;20100;-58
2022/09/01 10:00:15;;;;;;;1.70;0.65;;;;;;;39.53;23.24;101684.19;5016160;28;20036;-59
2022/09/01 10:02:42;;;;;;;1.25;0.90;;;;;;;39.05;24.04;101685.38;5032408;28;20032;-58
2022/09/01 10:05:39;;;;;;;0.80;0.80;;;;;;;38.83;24.90;101676.66;5032493;28;20026;-58
2022/09/01 10:08:08;;;;;;;1.00;0.90;;;;;;;38.75;23.99;101678.09;5033875;28;20386;-59
2022/09/01 10:10:46;;;;;;;1.67;0.63;;;;;;;38.78;23.30;101687.94;5033970;28;20053;-58
2022/09/01 10:13:20;;;;;;;1.15;0.63;;;;;;;38.79;23.50;101678.38;5033647;28;20021;-58
2022/09/01 10:15:48;;;;;;;2.80;0.93;;;;;;;38.89;22.99;101678.28;5015930;28;20033;-58
2022/09/01 10:18:17;;;;;;;0.75;0.70;;;;;;;38.97;22.83;101680.44;5032276;28;20036;-58
2022/09/01 10:21:07;;;;;;;1.10;0.55;;;;;;;39.12;22.91;101679.38;5033438;28;20103;-58
2022/09/01 10:23:33;;;;;;;1.55;0.85;;;;;;;39.37;22.78;101679.94;5033582;28;20467;-58
2022/09/01 10:26:10;;;;;;;0.60;0.60;;;;;;;39.64;22.10;101675.66;5032192;28;20470;-58
2022/09/01 10:28:43;;;;;;;0.90;0.60;;;;;;;39.82;21.65;101678.47;5047391;28;20086;-59
2022/09/01 10:31:09;;;;;;;0.93;0.73;;;;;;;40.06;22.18;101684.00;5052141;28;20482;-58
2022/09/01 10:33:35;;;;;;;1.90;0.95;;;;;;;40.22;22.07;101671.41;5052036;28;20021;-58
2022/09/01 10:36:00;;;;;;;1.10;0.60;;;;;;;40.41;21.88;101677.78;5053289;28;20081;-59
2022/09/01 10:38:27;;;;;;;1.20;0.75;;;;;;;40.51;21.54;101672.00;5052381;28;20099;-58
2022/09/01 10:41:07;;;;;;;0.60;0.60;;;;;;;40.72;21.36;101672.47;5052304;28;20028;-58
2022/09/01 10:43:34;;;;;;;0.77;0.73;;;;;;;40.86;20.71;101680.91;5053346;28;20029;-59
2022/09/01 10:46:07;;;;;;;1.75;0.63;;;;;;;40.95;20.65;101665.03;5052606;28;20028;-58
2022/09/01 10:48:33;;;;;;;1.33;1.13;;;;;;;41.09;20.81;101665.84;5051926;28;20441;-58
2022/09/01 10:51:31;;;;;;;0.68;0.55;;;;;;;41.20;21.06;101659.69;5053068;28;20389;-58
2022/09/01 10:53:57;;;;;;;1.27;0.80;;;;;;;41.20;20.57;101662.50;5051605;28;20119;-59
2022/09/01 10:56:48;;;;;;;2.35;0.82;;;;;;;41.26;20.63;101658.41;5051841;28;20071;-58
2022/09/01 10:59:25;;;;;;;2.05;0.82;;;;;;;41.28;20.42;101658.13;5053087;28;20486;-59
2022/09/01 11:01:51;;;;;;;1.65;0.80;;;;;;;41.32;20.74;101647.94;5052836;28;20029;-59
2022/09/01 11:04:20;;;;;;;0.82;0.70;;;;;;;41.27;20.47;101650.81;5052925;28;20048;-58
2022/09/01 11:07:04;;;;;;;2.55;0.63;;;;;;;41.33;20.68;101643.97;5051878;28;20036;-59
2022/09/01 11:10:02;;;;;;;2.58;0.98;;;;;;;41.45;19.96;101652.69;5051671;28;20095;-58
2022/09/01 11:12:55;;;;;;;1.95;0.60;;;;;;;41.52;20.04;101646.63;5052723;28;20549;-59
2022/09/01 11:15:37;;;;;;;1.50;0.80;;;;;;;41.58;20.23;101646.19;5051641;28;20114;-58
2022/09/01 11:18:08;;;;;;;2.50;0.98;;;;;;;41.61;20.29;101651.19;5051645;28;20082;-59
2022/09/01 11:20:38;;;;;;;0.80;0.50;;;;;;;41.57;20.01;101638.88;5051532;28;20055;-58
2022/09/01 11:23:22;;;;;;;1.20;0.70;;;;;;;41.65;19.65;101638.16;5051749;28;20045;-59
2022/09/01 11:25:51;;;;;;;2.97;0.95;;;;;;;41.68;20.00;101640.31;5052963;28;20025;-59
2022/09/01 11:28:25;;;;;;;1.25;0.70;;;;;;;41.72;19.59;101644.16;5052913;28;20382;-59
2022/09/01 11:30:59;;;;;;;1.55;0.60;;;;;;;41.81;19.95;101644.28;5052648;28;20371;-59
2022/09/01 11:33:24;;;;;;;0.77;0.60;;;;;;;41.90;19.57;101635.88;5051767;28;20044;-59
2022/09/01 11:35:59;;;;;;;0.60;0.55;;;;;;;42.03;19.12;101643.44;5052575;28;20025;-58
2022/09/01 11:38:24;;;;;;;0.50;0.50;;;;;;;42.10;19.32;101632.56;5052688;28;20028;-59
2022/09/01 11:40:55;;;;;;;0.47;0.47;;;;;;;42.15;19.26;101632.47;5051487;28;20025;-58
2022/09/01 11:43:22;;;;;;;1.45;1.17;;;;;;;42.24;19.64;101630.53;5051392;28;20082;-59